sensor_id;sensor_type;location;lat;lon;timestamp;pressure;altitude;pressure_sealevel;temperature;humidity
64253;BME280;50592;52.958;-7.470;2022-09-11T00:00:50;100634.09;;;14.33;100.00
64253;BME280;50592;52.958;-7.470;2022-09-11T00:03:21;100625.09;;;14.34;100.00
64253;BME280;50592;52.958;-7.470;2022-09-11T00:05:50;100627.91;;;14.32;100.00
64253;BME280;50592;52.958;-7.470;2022-09-11T00:08:17;100636.09;;;14.39;100.00
64253;BME280;50592;52.958;-7.470;2022-09-11T00:10:44;100639.56;;;14.39;100.00
64253;BME280;50592;52.958;-7.470;2022-09-11T00:13:20;100630.59;;;14.41;100.00
64253;BME280;50592;52.958;-7.470;2022-09-11T00:15:49;100633.75;;;14.44;100.00
64253;BME280;50592;52.958;-7.470;2022-09-11T00:18:19;100621.59;;;14.42;100.00
64253;BME280;50592;52.958;-7.470;2022-09-11T00:20:48;100629.91;;;14.38;100.00
64253;BME280;50592;52.958;-7.470;2022-09-11T00:23:25;100620.94;;;14.31;100.00
64253;BME280;50592;52.958;-7.470;2022-09-11T00:25:52;100618.28;;;14.31;100.00
64253;BME280;50592;52.958;-7.470;2022-09-11T00:28:23;100618.47;;;14.30;100.00
64253;BME280;50592;52.958;-7.470;2022-09-11T00:31:11;100608.47;;;14.32;100.00
64253;BME280;50592;52.958;-7.470;2022-09-11T00:33:38;100612.97;;;14.31;100.00
64253;BME280;50592;52.958;-7.470;2022-09-11T00:36:09;100615.47;;;14.33;100.00
64253;BME280;50592;52.958;-7.470;2022-09-11T00:38:36;100618.97;;;14.33;100.00
64253;BME280;50592;52.958;-7.470;2022-09-11T00:41:06;100613.66;;;14.33;100.00
64253;BME280;50592;52.958;-7.470;2022-09-11T00:46:49;100598.31;;;14.27;100.00
64253;BME280;50592;52.958;-7.470;2022-09-11T00:49:35;100604.13;;;14.22;100.00
64253;BME280;50592;52.958;-7.470;2022-09-11T00:52:10;100602.66;;;14.20;100.00
64253;BME280;50592;52.958;-7.470;2022-09-11T00:54:43;100600.50;;;14.15;100.00
64253;BME280;50592;52.958;-7.470;2022-09-11T00:57:11;100593.69;;;14.12;100.00
64253;BME280;50592;52.958;-7.470;2022-09-11T00:59:40;100585.56;;;14.14;100.00
64253;BME280;50592;52.958;-7.470;2022-09-11T01:02:10;100575.56;;;14.08;100.00
64253;BME280;50592;52.958;-7.470;2022-09-11T01:04:38;100585.53;;;14.06;100.00
64253;BME280;50592;52.958;-7.470;2022-09-11T01:07:04;100577.03;;;14.02;100.00
64253;BME280;50592;52.958;-7.470;2022-09-11T01:09:31;100571.38;;;13.97;100.00
64253;BME280;50592;52.958;-7.470;2022-09-11T01:15:23;100570.38;;;13.81;100.00
64253;BME280;50592;52.958;-7.470;2022-09-11T01:21:11;100576.84;;;13.79;100.00
64253;BME280;50592;52.958;-7.470;2022-09-11T01:23:59;100575.03;;;13.79;100.00
64253;BME280;50592;52.958;-7.470;2022-09-11T01:29:21;100574.16;;;13.70;100.00
64253;BME280;50592;52.958;-7.470;2022-09-11T01:31:58;100575.81;;;13.71;100.00
64253;BME280;50592;52.958;-7.470;2022-09-11T01:35:12;100583.28;;;13.68;100.00
64253;BME280;50592;52.958;-7.470;2022-09-11T01:37:51;100576.78;;;13.62;100.00
64253;BME280;50592;52.958;-7.470;2022-09-11T01:40:47;100572.63;;;13.59;100.00
64253;BME280;50592;52.958;-7.470;2022-09-11T01:43:24;100569.81;;;13.61;100.00
64253;BME280;50592;52.958;-7.470;2022-09-11T01:45:53;100556.69;;;13.59;100.00
64253;BME280;50592;52.958;-7.470;2022-09-11T01:48:26;100558.50;;;13.59;100.00
64253;BME280;50592;52.958;-7.470;2022-09-11T01:50:55;100550.88;;;13.56;100.00
64253;BME280;50592;52.958;-7.470;2022-09-11T01:53:25;100549.47;;;13.43;100.00
64253;BME280;50592;52.958;-7.470;2022-09-11T01:56:06;100537.81;;;13.27;100.00
64253;BME280;50592;52.958;-7.470;2022-09-11T01:58:38;100542.09;;;13.20;100.00
64253;BME280;50592;52.958;-7.470;2022-09-11T02:01:16;100533.31;;;13.20;100.00
64253;BME280;50592;52.958;-7.470;2022-09-11T02:03:49;100524.66;;;13.18;100.00
64253;BME280;50592;52.958;-7.470;2022-09-11T02:06:24;100528.50;;;13.23;100.00
64253;BME280;50592;52.958;-7.470;2022-09-11T02:08:57;100521.53;;;13.22;100.00
64253;BME280;50592;52.958;-7.470;2022-09-11T02:11:30;100515.56;;;13.20;100.00
64253;BME280;50592;52.958;-7.470;2022-09-11T02:19:16;100509.66;;;13.00;100.00
64253;BME280;50592;52.958;-7.470;2022-09-11T02:21:44;100504.16;;;12.93;100.00
64253;BME280;50592;52.958;-7.470;2022-09-11T02:24:13;100499.16;;;12.90;100.00
64253;BME280;50592;52.958;-7.470;2022-09-11T02:26:43;100503.50;;;12.91;100.00
64253;BME280;50592;52.958;-7.470;2022-09-11T02:29:11;100504.16;;;12.93;100.00
64253;BME280;50592;52.958;-7.470;2022-09-11T02:31:38;100498.38;;;12.98;100.00
64253;BME280;50592;52.958;-7.470;2022-09-11T02:34:04;100488.59;;;12.98;100.00
64253;BME280;50592;52.958;-7.470;2022-09-11T02:45:30;100475.16;;;13.00;100.00
64253;BME280;50592;52.958;-7.470;2022-09-11T02:56:02;100469.69;;;13.01;100.00
64253;BME280;50592;52.958;-7.470;2022-09-11T02:58:37;100471.50;;;12.93;100.00
64253;BME280;50592;52.958;-7.470;2022-09-11T03:01:07;100470.75;;;12.82;100.00
64253;BME280;50592;52.958;-7.470;2022-09-11T03:03:40;100462.63;;;12.75;100.00
64253;BME280;50592;52.958;-7.470;2022-09-11T03:06:09;100456.91;;;12.62;100.00
64253;BME280;50592;52.958;-7.470;2022-09-11T03:08:38;100465.19;;;12.59;100.00
64253;BME280;50592;52.958;-7.470;2022-09-11T03:11:05;100454.06;;;12.55;100.00
64253;BME280;50592;52.958;-7.470;2022-09-11T03:13:32;100456.06;;;12.53;100.00
64253;BME280;50592;52.958;-7.470;2022-09-11T03:16:03;100449.22;;;12.50;100.00
64253;BME280;50592;52.958;-7.470;2022-09-11T03:18:30;100446.56;;;12.50;100.00
64253;BME280;50592;52.958;-7.470;2022-09-11T03:20:57;100451.41;;;12.55;100.00
64253;BME280;50592;52.958;-7.470;2022-09-11T03:23:24;100448.25;;;12.51;100.00
64253;BME280;50592;52.958;-7.470;2022-09-11T03:25:51;100443.91;;;12.42;100.00
64253;BME280;50592;52.958;-7.470;2022-09-11T03:28:17;100443.16;;;12.32;100.00
64253;BME280;50592;52.958;-7.470;2022-09-11T03:30:43;100439.47;;;12.24;100.00
64253;BME280;50592;52.958;-7.470;2022-09-11T03:33:09;100432.47;;;12.15;100.00
64253;BME280;50592;52.958;-7.470;2022-09-11T03:35:35;100431.78;;;12.13;100.00
64253;BME280;50592;52.958;-7.470;2022-09-11T03:38:01;100424.66;;;12.13;100.00
64253;BME280;50592;52.958;-7.470;2022-09-11T03:40:27;100425.84;;;12.19;100.00
64253;BME280;50592;52.958;-7.470;2022-09-11T03:42:53;100426.56;;;12.30;100.00
64253;BME280;50592;52.958;-7.470;2022-09-11T03:45:19;100414.53;;;12.35;100.00
64253;BME280;50592;52.958;-7.470;2022-09-11T03:47:45;100419.69;;;12.37;100.00
64253;BME280;50592;52.958;-7.470;2022-09-11T03:50:11;100412.41;;;12.39;100.00
64253;BME280;50592;52.958;-7.470;2022-09-11T03:52:37;100402.81;;;12.46;100.00
64253;BME280;50592;52.958;-7.470;2022-09-11T03:55:05;100393.56;;;12.50;100.00
64253;BME280;50592;52.958;-7.470;2022-09-11T03:57:35;100380.97;;;12.52;100.00
64253;BME280;50592;52.958;-7.470;2022-09-11T04:00:02;100378.16;;;12.54;100.00
64253;BME280;50592;52.958;-7.470;2022-09-11T04:02:45;100376.03;;;12.58;100.00
64253;BME280;50592;52.958;-7.470;2022-09-11T04:05:13;100380.03;;;12.62;100.00
64253;BME280;50592;52.958;-7.470;2022-09-11T04:07:39;100389.34;;;12.66;100.00
64253;BME280;50592;52.958;-7.470;2022-09-11T04:10:06;100386.53;;;12.68;100.00
64253;BME280;50592;52.958;-7.470;2022-09-11T04:12:32;100380.75;;;12.72;100.00
64253;BME280;50592;52.958;-7.470;2022-09-11T04:14:59;100384.72;;;12.76;100.00
64253;BME280;50592;52.958;-7.470;2022-09-11T04:17:30;100379.09;;;12.80;100.00
64253;BME280;50592;52.958;-7.470;2022-09-11T04:19:56;100390.38;;;12.90;100.00
64253;BME280;50592;52.958;-7.470;2022-09-11T04:22:23;100380.63;;;12.90;100.00
64253;BME280;50592;52.958;-7.470;2022-09-11T04:24:49;100373.66;;;12.89;100.00
64253;BME280;50592;52.958;-7.470;2022-09-11T04:27:16;100369.34;;;12.97;100.00
64253;BME280;50592;52.958;-7.470;2022-09-11T04:29:44;100360.44;;;12.98;100.00
64253;BME280;50592;52.958;-7.470;2022-09-11T04:32:11;100367.34;;;12.90;100.00
64253;BME280;50592;52.958;-7.470;2022-09-11T04:34:38;100368.69;;;12.86;100.00
64253;BME280;50592;52.958;-7.470;2022-09-11T04:37:04;100365.72;;;12.89;100.00
64253;BME280;50592;52.958;-7.470;2022-09-11T04:39:31;100366.06;;;12.95;100.00
64253;BME280;50592;52.958;-7.470;2022-09-11T04:41:57;100356.25;;;12.95;100.00
64253;BME280;50592;52.958;-7.470;2022-09-11T04:44:23;100351.31;;;13.00;100.00
64253;BME280;50592;52.958;-7.470;2022-09-11T04:46:50;100351.97;;;13.02;100.00
64253;BME280;50592;52.958;-7.470;2022-09-11T04:49:17;100349.66;;;12.99;100.00
64253;BME280;50592;52.958;-7.470;2022-09-11T04:51:45;100352.78;;;12.95;100.00
64253;BME280;50592;52.958;-7.470;2022-09-11T04:54:15;100353.75;;;12.94;100.00
64253;BME280;50592;52.958;-7.470;2022-09-11T04:56:43;100353.41;;;12.88;100.00
64253;BME280;50592;52.958;-7.470;2022-09-11T05:01:39;100337.50;;;12.80;100.00
64253;BME280;50592;52.958;-7.470;2022-09-11T05:04:05;100341.81;;;12.81;100.00
64253;BME280;50592;52.958;-7.470;2022-09-11T05:06:31;100344.44;;;12.81;100.00
64253;BME280;50592;52.958;-7.470;2022-09-11T05:09:02;100344.28;;;12.83;100.00
64253;BME280;50592;52.958;-7.470;2022-09-11T05:11:30;100345.78;;;12.85;100.00
64253;BME280;50592;52.958;-7.470;2022-09-11T05:13:56;100346.81;;;12.93;100.00
64253;BME280;50592;52.958;-7.470;2022-09-11T05:16:28;100356.59;;;13.00;100.00
64253;BME280;50592;52.958;-7.470;2022-09-11T05:18:55;100356.13;;;13.05;100.00
64253;BME280;50592;52.958;-7.470;2022-09-11T05:21:23;100356.97;;;13.06;100.00
64253;BME280;50592;52.958;-7.470;2022-09-11T05:23:52;100352.13;;;13.09;100.00
64253;BME280;50592;52.958;-7.470;2022-09-11T05:26:21;100352.81;;;13.11;100.00
64253;BME280;50592;52.958;-7.470;2022-09-11T05:28:52;100357.94;;;13.13;100.00
64253;BME280;50592;52.958;-7.470;2022-09-11T05:31:18;100356.63;;;13.09;100.00
64253;BME280;50592;52.958;-7.470;2022-09-11T05:33:44;100352.94;;;13.01;100.00
64253;BME280;50592;52.958;-7.470;2022-09-11T05:36:12;100357.94;;;12.96;100.00
64253;BME280;50592;52.958;-7.470;2022-09-11T05:38:38;100351.25;;;12.84;100.00
64253;BME280;50592;52.958;-7.470;2022-09-11T05:41:05;100353.09;;;12.83;100.00
64253;BME280;50592;52.958;-7.470;2022-09-11T05:43:32;100344.09;;;12.68;100.00
64253;BME280;50592;52.958;-7.470;2022-09-11T05:45:58;100344.22;;;12.58;100.00
64253;BME280;50592;52.958;-7.470;2022-09-11T05:48:28;100340.72;;;12.57;100.00
64253;BME280;50592;52.958;-7.470;2022-09-11T05:51:00;100335.09;;;12.60;100.00
64253;BME280;50592;52.958;-7.470;2022-09-11T05:53:28;100334.78;;;12.63;100.00
64253;BME280;50592;52.958;-7.470;2022-09-11T05:55:55;100321.88;;;12.69;100.00
64253;BME280;50592;52.958;-7.470;2022-09-11T05:58:22;100331.69;;;12.76;100.00
64253;BME280;50592;52.958;-7.470;2022-09-11T06:00:48;100340.47;;;12.85;100.00
64253;BME280;50592;52.958;-7.470;2022-09-11T06:03:16;100339.00;;;12.91;100.00
64253;BME280;50592;52.958;-7.470;2022-09-11T06:05:42;100327.22;;;12.94;100.00
64253;BME280;50592;52.958;-7.470;2022-09-11T06:08:10;100328.91;;;12.95;100.00
64253;BME280;50592;52.958;-7.470;2022-09-11T06:10:43;100329.72;;;12.95;100.00
64253;BME280;50592;52.958;-7.470;2022-09-11T06:13:13;100329.09;;;12.93;100.00
64253;BME280;50592;52.958;-7.470;2022-09-11T06:15:48;100324.75;;;12.92;100.00
64253;BME280;50592;52.958;-7.470;2022-09-11T06:18:15;100328.56;;;12.89;100.00
64253;BME280;50592;52.958;-7.470;2022-09-11T06:20:41;100321.09;;;12.85;100.00
64253;BME280;50592;52.958;-7.470;2022-09-11T06:23:13;100318.09;;;12.80;100.00
64253;BME280;50592;52.958;-7.470;2022-09-11T06:25:39;100318.94;;;12.80;100.00
64253;BME280;50592;52.958;-7.470;2022-09-11T06:28:04;100314.13;;;12.84;100.00
64253;BME280;50592;52.958;-7.470;2022-09-11T06:30:31;100321.25;;;12.83;100.00
64253;BME280;50592;52.958;-7.470;2022-09-11T06:32:57;100313.63;;;12.80;100.00
64253;BME280;50592;52.958;-7.470;2022-09-11T06:35:23;100313.13;;;12.76;100.00
64253;BME280;50592;52.958;-7.470;2022-09-11T06:37:49;100312.75;;;12.71;100.00
64253;BME280;50592;52.958;-7.470;2022-09-11T06:40:15;100310.28;;;12.70;100.00
64253;BME280;50592;52.958;-7.470;2022-09-11T06:42:42;100324.22;;;12.72;100.00
64253;BME280;50592;52.958;-7.470;2022-09-11T06:45:09;100314.75;;;12.77;100.00
64253;BME280;50592;52.958;-7.470;2022-09-11T06:47:35;100314.59;;;12.79;100.00
64253;BME280;50592;52.958;-7.470;2022-09-11T06:50:02;100318.44;;;12.85;100.00
64253;BME280;50592;52.958;-7.470;2022-09-11T06:52:37;100312.81;;;12.88;100.00
64253;BME280;50592;52.958;-7.470;2022-09-11T06:55:24;100309.81;;;12.83;100.00
64253;BME280;50592;52.958;-7.470;2022-09-11T06:57:55;100316.59;;;12.85;100.00
64253;BME280;50592;52.958;-7.470;2022-09-11T07:00:25;100313.13;;;12.85;100.00
64253;BME280;50592;52.958;-7.470;2022-09-11T07:02:51;100313.63;;;12.88;100.00
64253;BME280;50592;52.958;-7.470;2022-09-11T07:05:18;100314.47;;;12.89;100.00
64253;BME280;50592;52.958;-7.470;2022-09-11T07:07:48;100308.34;;;12.97;100.00
64253;BME280;50592;52.958;-7.470;2022-09-11T07:10:15;100312.34;;;13.01;100.00
64253;BME280;50592;52.958;-7.470;2022-09-11T07:12:41;100309.19;;;13.06;100.00
64253;BME280;50592;52.958;-7.470;2022-09-11T07:15:08;100307.03;;;13.09;100.00
64253;BME280;50592;52.958;-7.470;2022-09-11T07:17:35;100306.69;;;13.12;100.00
64253;BME280;50592;52.958;-7.470;2022-09-11T07:20:05;100301.06;;;13.15;100.00
64253;BME280;50592;52.958;-7.470;2022-09-11T07:22:32;100305.22;;;13.18;100.00
64253;BME280;50592;52.958;-7.470;2022-09-11T07:24:58;100297.78;;;13.22;100.00
64253;BME280;50592;52.958;-7.470;2022-09-11T07:27:29;100297.94;;;13.20;100.00
64253;BME280;50592;52.958;-7.470;2022-09-11T07:29:57;100299.59;;;13.21;100.00
64253;BME280;50592;52.958;-7.470;2022-09-11T07:32:24;100291.28;;;13.24;100.00
64253;BME280;50592;52.958;-7.470;2022-09-11T07:34:52;100287.97;;;13.31;100.00
64253;BME280;50592;52.958;-7.470;2022-09-11T07:37:18;100275.53;;;13.31;100.00
64253;BME280;50592;52.958;-7.470;2022-09-11T07:39:43;100278.03;;;13.33;100.00
64253;BME280;50592;52.958;-7.470;2022-09-11T07:42:16;100263.91;;;13.32;100.00
64253;BME280;50592;52.958;-7.470;2022-09-11T07:44:42;100259.75;;;13.38;100.00
64253;BME280;50592;52.958;-7.470;2022-09-11T07:47:08;100264.72;;;13.41;100.00
64253;BME280;50592;52.958;-7.470;2022-09-11T07:49:40;100258.28;;;13.44;100.00
64253;BME280;50592;52.958;-7.470;2022-09-11T07:52:06;100258.09;;;13.45;100.00
64253;BME280;50592;52.958;-7.470;2022-09-11T07:54:40;100256.09;;;13.47;100.00
64253;BME280;50592;52.958;-7.470;2022-09-11T07:57:06;100256.63;;;13.51;100.00
64253;BME280;50592;52.958;-7.470;2022-09-11T07:59:31;100250.97;;;13.54;100.00
64253;BME280;50592;52.958;-7.470;2022-09-11T08:01:58;100253.13;;;13.59;100.00
64253;BME280;50592;52.958;-7.470;2022-09-11T08:04:24;100254.28;;;13.64;100.00
64253;BME280;50592;52.958;-7.470;2022-09-11T08:06:50;100253.09;;;13.67;100.00
64253;BME280;50592;52.958;-7.470;2022-09-11T08:09:20;100254.13;;;13.66;100.00
64253;BME280;50592;52.958;-7.470;2022-09-11T08:11:51;100239.81;;;13.67;100.00
64253;BME280;50592;52.958;-7.470;2022-09-11T08:14:20;100238.97;;;13.75;100.00
64253;BME280;50592;52.958;-7.470;2022-09-11T08:16:48;100242.97;;;13.79;100.00
64253;BME280;50592;52.958;-7.470;2022-09-11T08:19:20;100239.44;;;13.87;100.00
64253;BME280;50592;52.958;-7.470;2022-09-11T08:21:52;100238.44;;;13.88;100.00
64253;BME280;50592;52.958;-7.470;2022-09-11T08:24:18;100227.63;;;13.89;100.00
64253;BME280;50592;52.958;-7.470;2022-09-11T08:26:52;100227.47;;;13.91;100.00
64253;BME280;50592;52.958;-7.470;2022-09-11T08:29:18;100223.81;;;13.92;100.00
64253;BME280;50592;52.958;-7.470;2022-09-11T08:31:45;100214.84;;;13.93;100.00
64253;BME280;50592;52.958;-7.470;2022-09-11T08:34:12;100213.66;;;13.96;100.00
64253;BME280;50592;52.958;-7.470;2022-09-11T08:36:38;100206.34;;;13.98;100.00
64253;BME280;50592;52.958;-7.470;2022-09-11T08:39:05;100213.16;;;14.00;100.00
64253;BME280;50592;52.958;-7.470;2022-09-11T08:41:53;100193.34;;;14.03;100.00
64253;BME280;50592;52.958;-7.470;2022-09-11T08:44:29;100192.06;;;13.99;100.00
64253;BME280;50592;52.958;-7.470;2022-09-11T08:47:14;100183.72;;;14.10;100.00
64253;BME280;50592;52.958;-7.470;2022-09-11T08:52:33;100176.16;;;14.22;100.00
64253;BME280;50592;52.958;-7.470;2022-09-11T08:55:01;100171.63;;;14.31;100.00
64253;BME280;50592;52.958;-7.470;2022-09-11T09:02:40;100159.03;;;14.48;100.00
64253;BME280;50592;52.958;-7.470;2022-09-11T09:05:24;100146.22;;;14.52;100.00
64253;BME280;50592;52.958;-7.470;2022-09-11T09:08:20;100142.38;;;14.55;100.00
64253;BME280;50592;52.958;-7.470;2022-09-11T09:11:13;100140.19;;;14.58;100.00
64253;BME280;50592;52.958;-7.470;2022-09-11T09:13:50;100135.78;;;14.50;100.00
64253;BME280;50592;52.958;-7.470;2022-09-11T09:24:36;100117.84;;;14.68;100.00
64253;BME280;50592;52.958;-7.470;2022-09-11T09:27:06;100129.50;;;14.67;100.00
64253;BME280;50592;52.958;-7.470;2022-09-11T09:29:36;100116.66;;;14.70;100.00
64253;BME280;50592;52.958;-7.470;2022-09-11T09:32:06;100115.19;;;14.68;100.00
64253;BME280;50592;52.958;-7.470;2022-09-11T09:34:37;100110.69;;;14.68;100.00
64253;BME280;50592;52.958;-7.470;2022-09-11T09:37:19;100105.19;;;14.70;100.00
64253;BME280;50592;52.958;-7.470;2022-09-11T09:39:47;100115.00;;;14.69;100.00
64253;BME280;50592;52.958;-7.470;2022-09-11T09:47:41;100109.13;;;14.74;100.00
64253;BME280;50592;52.958;-7.470;2022-09-11T09:50:26;100106.47;;;14.74;100.00
64253;BME280;50592;52.958;-7.470;2022-09-11T09:55:39;100106.97;;;14.78;100.00
64253;BME280;50592;52.958;-7.470;2022-09-11T09:58:05;100096.97;;;14.80;100.00
64253;BME280;50592;52.958;-7.470;2022-09-11T10:00:35;100091.09;;;14.84;100.00
64253;BME280;50592;52.958;-7.470;2022-09-11T10:03:17;100080.47;;;14.84;100.00
64253;BME280;50592;52.958;-7.470;2022-09-11T10:05:44;100077.81;;;14.84;100.00
64253;BME280;50592;52.958;-7.470;2022-09-11T10:08:33;100069.63;;;14.86;100.00
64253;BME280;50592;52.958;-7.470;2022-09-11T10:13:31;100058.28;;;14.92;100.00
64253;BME280;50592;52.958;-7.470;2022-09-11T10:15:59;100058.09;;;14.94;100.00
64253;BME280;50592;52.958;-7.470;2022-09-11T10:23:50;100034.88;;;15.03;100.00
64253;BME280;50592;52.958;-7.470;2022-09-11T10:28:57;100020.19;;;15.07;100.00
64253;BME280;50592;52.958;-7.470;2022-09-11T10:31:24;100026.63;;;15.12;100.00
64253;BME280;50592;52.958;-7.470;2022-09-11T10:33:56;100034.88;;;15.18;100.00
64253;BME280;50592;52.958;-7.470;2022-09-11T10:36:25;100028.91;;;15.16;100.00
64253;BME280;50592;52.958;-7.470;2022-09-11T10:38:53;100023.59;;;15.16;100.00
64253;BME280;50592;52.958;-7.470;2022-09-11T10:41:22;100023.22;;;15.19;100.00
64253;BME280;50592;52.958;-7.470;2022-09-11T10:43:59;100028.34;;;15.20;100.00
64253;BME280;50592;52.958;-7.470;2022-09-11T10:49:23;100016.31;;;15.24;100.00
64253;BME280;50592;52.958;-7.470;2022-09-11T11:00:02;99989.84;;;15.38;100.00
64253;BME280;50592;52.958;-7.470;2022-09-11T11:02:38;99978.84;;;15.41;100.00
64253;BME280;50592;52.958;-7.470;2022-09-11T11:14:22;99967.13;;;15.57;100.00
64253;BME280;50592;52.958;-7.470;2022-09-11T11:17:08;99964.28;;;15.59;100.00
64253;BME280;50592;52.958;-7.470;2022-09-11T11:25:27;99948.00;;;15.75;100.00
64253;BME280;50592;52.958;-7.470;2022-09-11T11:36:50;99944.25;;;15.92;100.00
64253;BME280;50592;52.958;-7.470;2022-09-11T11:39:27;99936.53;;;15.97;100.00
64253;BME280;50592;52.958;-7.470;2022-09-11T18:41:01;99720.91;;;18.65;100.00
64253;BME280;50592;52.958;-7.470;2022-09-11T18:43:27;99731.19;;;18.68;100.00
64253;BME280;50592;52.958;-7.470;2022-09-11T18:45:54;99727.72;;;18.60;100.00
64253;BME280;50592;52.958;-7.470;2022-09-11T18:48:20;99729.16;;;18.63;100.00
64253;BME280;50592;52.958;-7.470;2022-09-11T18:50:46;99727.13;;;18.58;100.00
64253;BME280;50592;52.958;-7.470;2022-09-11T18:53:12;99732.69;;;18.57;100.00
64253;BME280;50592;52.958;-7.470;2022-09-11T18:56:01;99736.78;;;18.59;100.00
64253;BME280;50592;52.958;-7.470;2022-09-11T18:58:28;99727.94;;;18.52;100.00
64253;BME280;50592;52.958;-7.470;2022-09-11T19:00:56;99733.31;;;18.52;100.00
64253;BME280;50592;52.958;-7.470;2022-09-11T19:03:29;99738.66;;;18.52;100.00
64253;BME280;50592;52.958;-7.470;2022-09-11T19:06:05;99736.19;;;18.51;100.00
64253;BME280;50592;52.958;-7.470;2022-09-11T19:08:37;99738.94;;;18.44;100.00
64253;BME280;50592;52.958;-7.470;2022-09-11T19:11:28;99746.75;;;18.45;100.00
64253;BME280;50592;52.958;-7.470;2022-09-11T19:13:59;99740.16;;;18.41;100.00
64253;BME280;50592;52.958;-7.470;2022-09-11T19:16:26;99746.56;;;18.40;100.00
64253;BME280;50592;52.958;-7.470;2022-09-11T19:18:52;99739.56;;;18.39;100.00
64253;BME280;50592;52.958;-7.470;2022-09-11T19:21:21;99744.94;;;18.39;100.00
64253;BME280;50592;52.958;-7.470;2022-09-11T19:23:54;99738.13;;;18.37;100.00
64253;BME280;50592;52.958;-7.470;2022-09-11T19:26:34;99739.81;;;18.31;100.00
64253;BME280;50592;52.958;-7.470;2022-09-11T19:29:00;99735.88;;;18.33;100.00
64253;BME280;50592;52.958;-7.470;2022-09-11T19:31:34;99741.06;;;18.28;100.00
64253;BME280;50592;52.958;-7.470;2022-09-11T19:34:05;99737.34;;;18.29;100.00
64253;BME280;50592;52.958;-7.470;2022-09-11T19:36:42;99740.47;;;18.26;100.00
64253;BME280;50592;52.958;-7.470;2022-09-11T19:39:09;99748.47;;;18.26;100.00
64253;BME280;50592;52.958;-7.470;2022-09-11T19:41:36;99752.56;;;18.29;100.00
64253;BME280;50592;52.958;-7.470;2022-09-11T19:44:04;99754.03;;;18.25;100.00
64253;BME280;50592;52.958;-7.470;2022-09-11T19:46:32;99753.00;;;18.26;100.00
64253;BME280;50592;52.958;-7.470;2022-09-11T19:49:01;99756.94;;;18.23;100.00
64253;BME280;50592;52.958;-7.470;2022-09-11T19:51:36;99759.81;;;18.21;100.00
64253;BME280;50592;52.958;-7.470;2022-09-11T19:54:03;99757.34;;;18.20;100.00
64253;BME280;50592;52.958;-7.470;2022-09-11T19:56:34;99758.38;;;18.19;100.00
64253;BME280;50592;52.958;-7.470;2022-09-11T19:59:00;99753.66;;;18.14;100.00
64253;BME280;50592;52.958;-7.470;2022-09-11T20:01:28;99749.13;;;18.08;100.00
64253;BME280;50592;52.958;-7.470;2022-09-11T20:03:55;99758.19;;;18.07;100.00
64253;BME280;50592;52.958;-7.470;2022-09-11T20:06:24;99760.66;;;18.02;100.00
64253;BME280;50592;52.958;-7.470;2022-09-11T20:08:52;99754.94;;;17.98;100.00
64253;BME280;50592;52.958;-7.470;2022-09-11T20:11:21;99750.81;;;17.95;100.00
64253;BME280;50592;52.958;-7.470;2022-09-11T20:13:50;99741.59;;;17.91;100.00
64253;BME280;50592;52.958;-7.470;2022-09-11T20:16:19;99751.03;;;17.87;100.00
64253;BME280;50592;52.958;-7.470;2022-09-11T20:18:52;99749.63;;;17.84;100.00
64253;BME280;50592;52.958;-7.470;2022-09-11T20:21:18;99761.94;;;17.85;100.00
64253;BME280;50592;52.958;-7.470;2022-09-11T20:23:46;99760.53;;;17.83;100.00
64253;BME280;50592;52.958;-7.470;2022-09-11T20:26:20;99764.22;;;17.82;100.00
64253;BME280;50592;52.958;-7.470;2022-09-11T20:28:51;99770.00;;;17.79;100.00
64253;BME280;50592;52.958;-7.470;2022-09-11T20:31:20;99771.00;;;17.78;100.00
64253;BME280;50592;52.958;-7.470;2022-09-11T20:33:49;99768.97;;;17.73;100.00
64253;BME280;50592;52.958;-7.470;2022-09-11T20:36:16;99774.53;;;17.71;100.00
64253;BME280;50592;52.958;-7.470;2022-09-11T20:38:43;99779.28;;;17.69;100.00
64253;BME280;50592;52.958;-7.470;2022-09-11T20:41:12;99776.78;;;17.68;100.00
64253;BME280;50592;52.958;-7.470;2022-09-11T20:43:40;99777.41;;;17.63;100.00
64253;BME280;50592;52.958;-7.470;2022-09-11T20:46:07;99780.50;;;17.60;100.00
64253;BME280;50592;52.958;-7.470;2022-09-11T20:48:34;99789.53;;;17.59;100.00
64253;BME280;50592;52.958;-7.470;2022-09-11T20:51:07;99785.25;;;17.58;100.00
64253;BME280;50592;52.958;-7.470;2022-09-11T20:53:34;99784.00;;;17.54;100.00
64253;BME280;50592;52.958;-7.470;2022-09-11T20:56:05;99789.75;;;17.51;100.00
64253;BME280;50592;52.958;-7.470;2022-09-11T20:58:42;99792.63;;;17.49;100.00
64253;BME280;50592;52.958;-7.470;2022-09-11T21:01:12;99796.34;;;17.48;100.00
64253;BME280;50592;52.958;-7.470;2022-09-11T21:03:46;99800.84;;;17.47;100.00
64253;BME280;50592;52.958;-7.470;2022-09-11T21:06:13;99803.53;;;17.47;100.00
64253;BME280;50592;52.958;-7.470;2022-09-11T21:08:39;99800.47;;;17.44;100.00
64253;BME280;50592;52.958;-7.470;2022-09-11T21:11:18;99805.78;;;17.51;100.00
64253;BME280;50592;52.958;-7.470;2022-09-11T21:13:48;99803.53;;;17.47;100.00
64253;BME280;50592;52.958;-7.470;2022-09-11T21:16:16;99808.06;;;17.47;100.00
64253;BME280;50592;52.958;-7.470;2022-09-11T21:18:53;99798.38;;;17.46;100.00
64253;BME280;50592;52.958;-7.470;2022-09-11T21:21:24;99803.31;;;17.49;100.00
64253;BME280;50592;52.958;-7.470;2022-09-11T21:23:55;99807.44;;;17.52;100.00
64253;BME280;50592;52.958;-7.470;2022-09-11T21:26:21;99799.84;;;17.48;100.00
64253;BME280;50592;52.958;-7.470;2022-09-11T21:29:07;99792.84;;;17.47;100.00
64253;BME280;50592;52.958;-7.470;2022-09-11T21:31:36;99801.25;;;17.44;100.00
64253;BME280;50592;52.958;-7.470;2022-09-11T21:34:02;99810.75;;;17.47;100.00